| Record Date MM/DD/YYYY | Record Time HH:MM:SS | Record Julian Date NNN day of the year | Air Temperature Max (Degrees Fahrenheit F) | Time Max Air Temperature HH:MM:SS This is the time of max air temp for the prior hour interval listed for record [Time]. | Air Temperature Min (Degrees Fahrenheit F) | Time Min Air Temperature HH:MM:SS This is the time of min air temp for the prior hour interval listed for record [Time]. | Air Temperature Observed (Degrees Fahrenheit F) This is an instantaneous reading at the record [Time]. | Relative Humidity Max (Percent) | Time Max Relative Humidity HH:MM:SS This is the time of max relative humidity for the prior hour interval listed for record [Time]. | Relative Humidity Min (Percent) | Time Min Relative Humidity HH:MM:SS This is the time of min relative humidity for the prior hour interval listed for record [Time]. | Relative Humidity Observed (Percent) This is an instantaneous reading at the record [Time]. | Precipitation (Inches n.nn) rain fall that occurred during the prior hour interval listed for record [Time]. | Wind Speed (Miles Per Hour) Resultant Speed that occurred during the prior hour interval listed for record [Time]. | Wind Direction (Degrees) Resultant Direction that occurred during the prior hour interval listed for record [Time]. | Solar Radiation (Langley's) that occurred during the prior hour interval listed for record [Time]. | Soil Temperature Average at 2 inch depth (Degrees Fahrenheit F) that occurred during the prior hour interval listed for record [Time]. | Soil Temperature Observed at 2 inch depth (Degrees Fahrenheit F) This is an instantaneous reading at the record [Time]. | Soil Temperature Average at 4 inch depth (Degrees Fahrenheit F) that occurred during the prior hour interval listed for record [Time]. | Soil Temperature Observed at 4 inch depth (Degrees Fahrenheit F) This is an instantaneous reading at the record [Time]. |
|---|---|---|---|---|---|---|---|---|---|---|---|---|---|---|---|---|---|---|---|---|
| 04/26/2026 | 0:00:00 | 116 | 65 | 23:08:01 | 64 | 23:53:04 | 64 | 98 | 23:59:05 | 98 | 23:02:04 | 98 | 0 | 0.0 | 0 | |||||
| 04/26/2026 | 1:00:00 | 116 | 64 | 0:22:00 | 63 | 0:48:02 | 63 | 98 | 0:59:00 | 98 | 0:28:03 | 98.1 | 0 | 0.1 | 0 | |||||
| 04/26/2026 | 2:00:00 | 116 | 63 | 1:02:01 | 63 | 1:54:00 | 63 | 98 | 1:44:01 | 98 | 1:11:03 | 98.2 | 0 | 0.1 | 0 | |||||
| 04/26/2026 | 3:00:00 | 116 | 63 | 2:25:00 | 62 | 2:51:00 | 62 | 98 | 2:57:03 | 98 | 2:21:00 | 98.3 | 0 | 0.0 | 0 | |||||
| 04/26/2026 | 4:00:00 | 116 | 62 | 3:17:01 | 62 | 3:27:02 | 62 | 99 | 3:16:02 | 98 | 3:03:00 | 98.4 | 0 | 0.0 | 0 | |||||
| 04/26/2026 | 5:00:00 | 116 | 62 | 4:00:01 | 61 | 4:38:01 | 62 | 99 | 4:47:00 | 98 | 4:13:00 | 98.5 | 0 | 0.0 | 0 | |||||
| 04/26/2026 | 6:00:00 | 116 | 63 | 5:56:00 | 62 | 5:11:02 | 63 | 99 | 5:24:04 | 98 | 6:00:00 | 98.4 | 0 | 0.0 | 0 | |||||
| 04/26/2026 | 7:00:00 | 116 | 65 | 6:58:04 | 63 | 6:00:03 | 65 | 99 | 6:00:02 | 97 | 6:59:04 | 97.4 | 0 | 0.9 | 0 | |||||
| 04/26/2026 | 8:00:00 | 116 | 73 | 8:00:00 | 65 | 7:00:01 | 73 | 97 | 7:00:05 | 88 | 7:58:05 | 88.8 | 0 | 0.1 | 0 | |||||
| 04/26/2026 | 9:00:00 | 116 | 81 | 8:57:03 | 73 | 8:00:01 | 80 | 89 | 8:00:03 | 60 | 8:58:03 | 63.08 | 0 | 0.5 | 0 | |||||
| 04/26/2026 | 10:00:00 | 116 | 83 | 9:58:03 | 80 | 9:13:02 | 83 | 73 | 9:37:03 | 56 | 10:00:00 | 55.93 | 0 | 0.7 | 0 | |||||
| 04/26/2026 | 11:00:00 | 116 | 86 | 10:56:00 | 81 | 10:09:00 | 84 | 72 | 10:11:02 | 54 | 10:57:00 | 62.82 | 0 | 1.1 | 0 | |||||
| 04/26/2026 | 12:00:00 | 116 | 89 | 11:55:05 | 84 | 11:01:01 | 88 | 71 | 11:03:01 | 51 | 11:47:04 | 57.85 | 0 | 0.9 | 0 | |||||
| 04/26/2026 | 13:00:00 | 116 | 89 | 12:18:02 | 86 | 12:11:04 | 87 | 68 | 12:31:01 | 51 | 12:22:03 | 62.42 | 0 | 0.8 | 0 | |||||
| 04/26/2026 | 14:00:00 | 116 | 91 | 13:56:03 | 86 | 13:10:00 | 91 | 67 | 13:17:05 | 48 | 13:57:03 | 55.12 | 0 | 0.4 | 0 | |||||
| 04/26/2026 | 15:00:00 | 116 | 91 | 14:07:00 | 87 | 14:22:02 | 91 | 65 | 14:24:00 | 47 | 14:00:05 | 54.3 | 0 | 1.1 | 0 | |||||
| 04/26/2026 | 16:00:00 | 116 | 91 | 15:00:01 | 83 | 15:52:01 | 83 | 73 | 15:56:04 | 56 | 15:00:01 | 69 | 0 | 1.0 | 0 | |||||
| 04/26/2026 | 17:00:00 | 116 | 89 | 16:26:05 | 83 | 16:00:01 | 87 | 70 | 16:00:01 | 53 | 16:28:01 | 62.32 | 0 | 1.7 | 0 | |||||
| 04/26/2026 | 18:00:00 | 116 | 87 | 17:13:03 | 84 | 17:48:00 | 85 | 67 | 17:57:02 | 54 | 17:20:00 | 64.14 | 0 | 1.3 | 0 | |||||
| 04/26/2026 | 19:00:00 | 116 | 85 | 18:04:04 | 72 | 18:59:05 | 72 | 89 | 18:59:05 | 63 | 18:03:01 | 89.2 | 0 | 0.0 | 0 | |||||
| 04/26/2026 | 20:00:00 | 116 | 72 | 19:00:01 | 68 | 19:58:05 | 69 | 94 | 20:00:00 | 89 | 19:01:03 | 94.4 | 0 | 0.0 | 0 | |||||
| 04/26/2026 | 21:00:00 | 116 | 69 | 20:08:01 | 67 | 20:49:05 | 67 | 97 | 20:58:00 | 94 | 20:00:01 | 96.6 | 0 | 0.0 | 0 | |||||
| 04/26/2026 | 22:00:00 | 116 | 67 | 21:00:02 | 66 | 21:58:02 | 66 | 97 | 21:58:04 | 97 | 21:00:01 | 97.4 | 0 | 0.0 | 0 | |||||
| 04/26/2026 | 23:00:00 | 116 | 66 | 22:02:03 | 65 | 22:38:00 | 65 | 98 | 22:46:04 | 97 | 22:07:01 | 97.7 | 0 | 0.0 | 0 | |||||
| 04/27/2026 | 0:00:00 | 117 | 65 | 23:10:02 | 64 | 0:00:00 | 64 | 98 | 23:32:01 | 98 | 23:02:03 | 97.9 | 0 | 0.0 | 0 | |||||
| 04/27/2026 | 1:00:00 | 117 | 65 | 0:43:03 | 64 | 0:55:00 | 64 | 98 | 0:40:01 | 98 | 0:00:05 | 98.1 | 0 | 0.1 | 0 | |||||
| 04/27/2026 | 2:00:00 | 117 | 64 | 1:00:03 | 63 | 1:54:03 | 63 | 98 | 2:00:00 | 98 | 1:19:01 | 98.4 | 0 | 0.0 | 0 | |||||
| 04/27/2026 | 3:00:00 | 117 | 64 | 2:03:03 | 63 | 2:59:04 | 63 | 98 | 2:41:05 | 98 | 2:20:04 | 98.4 | 0 | 0.0 | 0 | |||||
| 04/27/2026 | 4:00:00 | 117 | 63 | 3:21:04 | 63 | 3:41:01 | 63 | 99 | 3:20:02 | 98 | 3:41:02 | 98.5 | 0 | 0.0 | 0 | |||||
| 04/27/2026 | 5:00:00 | 117 | 63 | 4:05:03 | 62 | 4:22:05 | 63 | 99 | 4:59:03 | 98 | 4:20:03 | 98.6 | 0 | 0.0 | 0 | |||||
| 04/27/2026 | 6:00:00 | 117 | 64 | 6:00:00 | 62 | 5:08:04 | 64 | 99 | 5:41:00 | 99 | 5:08:04 | 98.6 | 0 | 0.0 | 0 | |||||
| 04/27/2026 | 7:00:00 | 117 | 69 | 6:58:04 | 64 | 6:00:01 | 68 | 99 | 6:07:00 | 98 | 7:00:00 | 98.1 | 0 | 2.3 | 0 | |||||
| 04/27/2026 | 8:00:00 | 117 | 76 | 7:59:05 | 68 | 7:00:02 | 76 | 98 | 7:02:03 | 87 | 8:00:00 | 87.4 | 0 | 3.3 | 0 | |||||
| 04/27/2026 | 9:00:00 | 117 | 81 | 9:00:00 | 75 | 8:00:01 | 81 | 89 | 8:05:00 | 76 | 8:48:00 | 78.25 | 0 | 4.9 | 0 | |||||
| 04/27/2026 | 10:00:00 | 117 | 84 | 9:35:03 | 81 | 9:08:05 | 83 | 79 | 9:14:01 | 69 | 9:29:03 | 73.1 | 0 | 6.1 | 0 | |||||
| 04/27/2026 | 11:00:00 | 117 | 86 | 10:54:00 | 83 | 10:03:01 | 85 | 76 | 10:50:03 | 66 | 10:56:00 | 73.74 | 0 | 6.1 | 0 | |||||
| 04/27/2026 | 12:00:00 | 117 | 87 | 11:47:02 | 84 | 11:59:05 | 84 | 72 | 11:07:00 | 61 | 11:48:00 | 63.17 | 0 | 6.6 | 0 | |||||
| 04/27/2026 | 13:00:00 | 117 | 88 | 12:49:04 | 83 | 12:16:02 | 84 | 66 | 12:12:05 | 54 | 12:54:00 | 58.22 | 0 | 5.9 | 0 | |||||
| 04/27/2026 | 14:00:00 | 117 | 88 | 13:38:00 | 82 | 13:21:03 | 84 | 66 | 13:32:02 | 54 | 13:38:01 | 64.25 | 0 | 4.9 | 0 | |||||
| 04/27/2026 | 15:00:00 | 117 | 89 | 14:40:01 | 84 | 14:00:01 | 87 | 69 | 14:01:02 | 53 | 14:55:03 | 56.65 | 0 | 5.1 | 0 | |||||
| 04/27/2026 | 16:00:00 | 117 | 90 | 15:33:03 | 86 | 15:04:03 | 88 | 62 | 15:09:01 | 51 | 15:36:03 | 54.3 | 0 | 4.9 | 0 | |||||
| 04/27/2026 | 17:00:00 | 117 | 88 | 16:00:03 | 85 | 16:24:02 | 87 | 62 | 16:23:04 | 53 | 16:01:04 | 60.6 | 0 | 4.2 | 0 | |||||
| 04/27/2026 | 18:00:00 | 117 | 87 | 17:00:01 | 83 | 17:49:05 | 83 | 67 | 17:51:05 | 60 | 17:04:01 | 66.6 | 0 | 3.4 | 0 | |||||
| 04/27/2026 | 19:00:00 | 117 | 83 | 18:01:04 | 80 | 18:57:02 | 80 | 72 | 18:59:05 | 66 | 18:09:05 | 72.48 | 0 | 2.8 | 0 | |||||
| 04/27/2026 | 20:00:00 | 117 | 81 | 19:03:04 | 79 | 19:57:00 | 79 | 75 | 19:46:04 | 71 | 19:05:00 | 73.75 | 0 | 2.1 | 0 | |||||
| 04/27/2026 | 21:00:00 | 117 | 79 | 20:00:01 | 78 | 20:59:01 | 78 | 78 | 20:57:05 | 74 | 20:01:03 | 77.08 | 0 | 2.2 | 0 | |||||
| 04/27/2026 | 22:00:00 | 117 | 78 | 21:52:03 | 77 | 21:23:05 | 78 | 79 | 21:17:05 | 73 | 21:59:02 | 73.36 | 0 | 3.3 | 0 | |||||
| 04/27/2026 | 23:00:00 | 117 | 78 | 22:01:04 | 77 | 22:38:02 | 78 | 74 | 22:13:01 | 70 | 22:59:02 | 70.44 | 0 | 4.2 | 0 | |||||
| 04/28/2026 | 0:00:00 | 118 | 78 | 23:02:02 | 76 | 0:00:00 | 76 | 74 | 23:59:02 | 70 | 23:03:04 | 73.85 | 0 | 3.1 | 0 | |||||
| 04/28/2026 | 1:00:00 | 118 | 76 | 0:02:02 | 75 | 0:58:01 | 75 | 76 | 0:26:01 | 73 | 0:07:03 | 75.47 | 0 | 3.5 | 0 | |||||
| 04/28/2026 | 2:00:00 | 118 | 75 | 1:02:00 | 73 | 1:58:00 | 73 | 79 | 1:50:02 | 75 | 1:01:03 | 77.94 | 0 | 1.7 | 0 | |||||
| 04/28/2026 | 3:00:00 | 118 | 74 | 2:06:02 | 72 | 2:59:04 | 72 | 80 | 2:56:03 | 77 | 2:30:04 | 79.83 | 0 | 1.8 | 0 | |||||
| 04/28/2026 | 4:00:00 | 118 | 73 | 3:31:05 | 72 | 3:11:05 | 73 | 82 | 3:13:05 | 78 | 3:30:05 | 79.69 | 0 | 0.9 | 0 | |||||
| 04/28/2026 | 5:00:00 | 118 | 73 | 4:28:02 | 72 | 4:13:02 | 72 | 84 | 4:12:04 | 80 | 4:00:01 | 83.4 | 0 | 0.4 | 0 | |||||
| 04/28/2026 | 6:00:00 | 118 | 72 | 5:24:02 | 72 | 5:34:00 | 72 | 87 | 5:34:03 | 83 | 5:06:05 | 86.3 | 0 | 1.1 | 0 | |||||
| 04/28/2026 | 7:00:00 | 118 | 72 | 6:00:02 | 71 | 6:59:01 | 71 | 93 | 7:00:00 | 86 | 6:00:04 | 92.9 | 0 | 0.1 | 0 | |||||
| 04/28/2026 | 8:00:00 | 118 | 71 | 7:59:05 | 71 | 7:22:02 | 71 | 94 | 7:56:03 | 93 | 7:00:03 | 94.3 | 0 | 0.3 | 0 | |||||
| 04/28/2026 | 9:00:00 | 118 | 71 | 8:04:05 | 70 | 8:57:04 | 70 | 97 | 9:00:00 | 93 | 8:20:02 | 96.7 | 0.26 | 1.8 | 0 | |||||
| 04/28/2026 | 10:00:00 | 118 | 72 | 9:54:00 | 69 | 9:10:05 | 71 | 98 | 9:45:00 | 97 | 9:00:01 | 97.4 | 0.7 | 2.3 | 0 | |||||
| 04/28/2026 | 11:00:00 | 118 | 71 | 10:52:05 | 71 | 10:32:05 | 71 | 98 | 10:40:00 | 97 | 10:01:03 | 97.7 | 0.03 | 1.3 | 0 | |||||
| 04/28/2026 | 12:00:00 | 118 | 71 | 11:04:05 | 70 | 11:34:02 | 71 | 98 | 11:48:02 | 98 | 11:06:02 | 97.8 | 0.01 | 3.0 | 0 | |||||
| 04/28/2026 | 13:00:00 | 118 | 71 | 12:27:01 | 70 | 12:47:01 | 71 | 98 | 12:51:03 | 98 | 12:38:04 | 97.8 | 0 | 2.6 | 0 | |||||
| 04/28/2026 | 14:00:00 | 118 | 71 | 13:04:05 | 70 | 13:53:04 | 70 | 98 | 13:02:00 | 98 | 13:22:01 | 97.7 | 0 | 3.5 | 0 | |||||
| 04/28/2026 | 15:00:00 | 118 | 71 | 14:35:04 | 70 | 14:00:01 | 70 | 98 | 14:01:02 | 98 | 14:37:03 | 97.7 | 0.03 | 3.8 | 0 | |||||
| 04/28/2026 | 16:00:00 | 118 | 72 | 15:53:04 | 70 | 15:00:01 | 71 | 98 | 15:07:05 | 97 | 15:59:02 | 97.1 | 0.01 | 3.5 | 0 | |||||
| 04/28/2026 | 17:00:00 | 118 | 72 | 16:55:05 | 71 | 16:17:03 | 72 | 97 | 16:28:01 | 97 | 16:57:04 | 97.1 | 0.02 | 2.9 | 0 | |||||
| 04/28/2026 | 18:00:00 | 118 | 73 | 17:15:01 | 72 | 17:57:05 | 72 | 97 | 18:00:00 | 96 | 17:20:03 | 97.1 | 0 | 4.1 | 0 | |||||
| 04/28/2026 | 19:00:00 | 118 | 72 | 18:00:01 | 71 | 18:59:03 | 71 | 98 | 19:00:00 | 97 | 18:01:00 | 97.6 | 0.01 | 3.0 | 0 | |||||
| 04/28/2026 | 20:00:00 | 118 | 71 | 19:00:02 | 70 | 20:00:00 | 70 | 98 | 19:58:00 | 98 | 19:00:03 | 97.8 | 0.18 | 2.1 | 0 | |||||
| 04/28/2026 | 21:00:00 | 118 | 70 | 20:00:01 | 69 | 21:00:00 | 69 | 98 | 20:58:05 | 98 | 20:03:00 | 98.1 | 0.11 | 1.2 | 0 | |||||
| 04/28/2026 | 22:00:00 | 118 | 69 | 21:59:05 | 68 | 21:37:02 | 69 | 98 | 21:58:02 | 98 | 21:07:02 | 98.3 | 0.63 | 4.3 | 0 | |||||
| 04/28/2026 | 23:00:00 | 118 | 69 | 22:02:04 | 69 | 22:34:01 | 69 | 98 | 22:00:04 | 98 | 22:19:00 | 98.1 | 0.07 | 0.6 | 0 | |||||
| 04/29/2026 | 0:00:00 | 119 | 69 | 23:00:03 | 69 | 23:59:02 | 69 | 98 | 23:57:04 | 98 | 23:01:05 | 98.2 | 0.01 | 0.0 | 0 | |||||
| 04/29/2026 | 1:00:00 | 119 | 69 | 0:59:05 | 68 | 0:22:04 | 69 | 98 | 0:51:05 | 98 | 0:00:05 | 98.3 | 0.01 | 0.1 | 0 | |||||
| 04/29/2026 | 2:00:00 | 119 | 69 | 1:24:02 | 69 | 1:48:01 | 69 | 98 | 1:45:01 | 98 | 1:06:00 | 98.4 | 0.39 | 1.4 | 0 | |||||
| 04/29/2026 | 3:00:00 | 119 | 69 | 3:00:00 | 69 | 2:00:01 | 69 | 98 | 2:23:02 | 98 | 2:50:03 | 98.3 | 0.01 | 0.4 | 0 | |||||
| 04/29/2026 | 4:00:00 | 119 | 69 | 3:56:00 | 69 | 3:38:00 | 69 | 98 | 3:51:04 | 98 | 3:12:03 | 98.3 | 0.01 | 1.4 | 0 | |||||
| 04/29/2026 | 5:00:00 | 119 | 69 | 4:01:00 | 69 | 4:15:00 | 69 | 98 | 4:01:00 | 98 | 4:51:03 | 98.3 | 0.03 | 0.8 | 0 | |||||
| 04/29/2026 | 6:00:00 | 119 | 69 | 5:57:02 | 69 | 5:00:03 | 69 | 98 | 5:05:03 | 98 | 5:59:04 | 98.3 | 0 | 0.6 | 0 | |||||
| 04/29/2026 | 7:00:00 | 119 | 71 | 6:59:04 | 69 | 6:02:01 | 71 | 98 | 6:01:01 | 98 | 6:56:02 | 98.1 | 0 | 1.1 | 0 | |||||
| 04/29/2026 | 8:00:00 | 119 | 72 | 7:54:00 | 71 | 7:02:01 | 72 | 98 | 7:01:03 | 98 | 7:59:04 | 97.5 | 0 | 2.3 | 0 | |||||
| 04/29/2026 | 9:00:00 | 119 | 74 | 9:00:00 | 72 | 8:00:01 | 74 | 98 | 8:00:01 | 96 | 8:59:03 | 95.7 | 0 | 2.1 | 0 | |||||
| 04/29/2026 | 10:00:00 | 119 | 79 | 10:00:00 | 74 | 9:00:05 | 79 | 96 | 9:02:02 | 89 | 9:56:05 | 91.1 | 0 | 4.5 | 0 | |||||
| 04/29/2026 | 11:00:00 | 119 | 81 | 10:28:04 | 79 | 10:00:01 | 80 | 92 | 10:04:00 | 82 | 10:58:01 | 85 | 0 | 5.9 | 0 | |||||
| 04/29/2026 | 12:00:00 | 119 | 81 | 11:07:02 | 78 | 11:21:04 | 80 | 89 | 11:23:03 | 80 | 11:52:01 | 84.7 | 0 | 5.9 | 0 | |||||
| 04/29/2026 | 13:00:00 | 119 | 83 | 12:50:05 | 80 | 12:03:02 | 82 | 86 | 12:11:05 | 73 | 12:57:05 | 79.05 | 0 | 7.3 | 0 | |||||
| 04/29/2026 | 14:00:00 | 119 | 83 | 13:06:00 | 81 | 13:21:01 | 82 | 82 | 13:04:05 | 71 | 13:06:02 | 75.28 | 0 | 4.4 | 0 | |||||
| 04/29/2026 | 15:00:00 | 119 | 84 | 14:13:00 | 80 | 14:59:03 | 80 | 80 | 14:01:03 | 68 | 14:15:03 | 77.86 | 0 | 4.0 | 0 | |||||
| 04/29/2026 | 16:00:00 | 119 | 82 | 15:39:04 | 79 | 15:15:00 | 79 | 81 | 15:18:00 | 71 | 15:47:04 | 76.88 | 0 | 3.2 | 0 | |||||
| 04/29/2026 | 17:00:00 | 119 | 79 | 16:18:02 | 76 | 16:59:00 | 77 | 84 | 16:50:04 | 75 | 16:17:02 | 81.2 | 0 | 1.9 | 0 | |||||
| 04/29/2026 | 18:00:00 | 119 | 76 | 17:00:01 | 73 | 17:59:03 | 73 | 86 | 17:58:00 | 80 | 17:22:00 | 84.8 | 0 | 3.9 | 0 | |||||
| 04/29/2026 | 19:00:00 | 119 | 73 | 18:00:01 | 70 | 18:59:05 | 70 | 89 | 18:54:00 | 83 | 18:34:01 | 88.3 | 0 | 2.1 | 0 | |||||
| 04/29/2026 | 20:00:00 | 119 | 70 | 19:20:04 | 69 | 19:59:02 | 69 | 93 | 19:52:03 | 85 | 19:17:04 | 91.9 | 0 | 0.5 | 0 | |||||
| 04/29/2026 | 21:00:00 | 119 | 69 | 20:03:01 | 66 | 20:52:02 | 66 | 96 | 20:56:05 | 86 | 20:24:03 | 96.1 | 0.16 | 2.0 | 0 | |||||
| 04/29/2026 | 22:00:00 | 119 | 66 | 21:23:01 | 65 | 21:59:01 | 65 | 97 | 21:39:04 | 96 | 21:01:03 | 96.5 | 0.12 | 2.5 | 0 | |||||
| 04/29/2026 | 23:00:00 | 119 | 65 | 22:00:03 | 63 | 22:59:02 | 63 | 97 | 22:36:00 | 96 | 22:05:04 | 96.5 | 0 | 3.0 | 0 | |||||
| 04/30/2026 | 0:00:00 | 120 | 63 | 23:00:01 | 62 | 0:00:00 | 62 | 97 | 23:54:02 | 96 | 23:29:05 | 97 | 0 | 1.2 | 0 | |||||
| 04/30/2026 | 1:00:00 | 120 | 62 | 0:18:01 | 62 | 0:52:03 | 62 | 97 | 0:18:01 | 97 | 0:02:02 | 97.2 | 0.01 | 0.4 | 0 | |||||
| 04/30/2026 | 2:00:00 | 120 | 62 | 1:37:04 | 61 | 1:58:05 | 61 | 98 | 1:48:04 | 97 | 1:06:05 | 97.9 | 0.17 | 0.7 | 0 | |||||
| 04/30/2026 | 3:00:00 | 120 | 62 | 2:14:03 | 61 | 2:52:05 | 61 | 98 | 2:13:03 | 98 | 2:08:04 | 98 | 0 | 1.2 | 0 | |||||
| 04/30/2026 | 4:00:00 | 120 | 61 | 3:23:03 | 61 | 3:59:05 | 61 | 98 | 3:19:03 | 98 | 3:50:01 | 97.7 | 0.04 | 1.9 | 0 | |||||
| 04/30/2026 | 5:00:00 | 120 | 61 | 4:00:04 | 59 | 4:59:01 | 59 | 98 | 4:02:04 | 97 | 4:57:05 | 97.4 | 0 | 1.8 | 0 | |||||
| 04/30/2026 | 6:00:00 | 120 | 59 | 5:00:01 | 57 | 5:59:01 | 58 | 97 | 5:02:03 | 95 | 5:59:00 | 95.4 | 0.01 | 2.6 | 0 | |||||
| 04/30/2026 | 7:00:00 | 120 | 58 | 6:49:03 | 57 | 6:22:01 | 57 | 96 | 6:05:02 | 90 | 7:00:00 | 90.1 | 0 | 2.5 | 0 | |||||
| 04/30/2026 | 8:00:00 | 120 | 61 | 7:59:05 | 57 | 7:00:01 | 61 | 93 | 7:04:04 | 84 | 7:53:01 | 87.5 | 0 | 1.8 | 0 | |||||
| 04/30/2026 | 9:00:00 | 120 | 65 | 9:00:00 | 60 | 8:03:05 | 65 | 88 | 8:00:01 | 69 | 8:51:00 | 81.4 | 0 | 1.4 | 0 | |||||
| 04/30/2026 | 10:00:00 | 120 | 69 | 9:39:00 | 65 | 9:23:01 | 67 | 82 | 9:00:04 | 64 | 9:41:02 | 68.27 | 0 | 1.1 | 0 | |||||
| 04/30/2026 | 11:00:00 | 120 | 71 | 10:51:02 | 66 | 10:11:01 | 69 | 77 | 10:06:04 | 56 | 10:56:04 | 63.91 | 0 | 2.3 | 0 | |||||
| 04/30/2026 | 12:00:00 | 120 | 72 | 12:00:00 | 68 | 11:02:02 | 72 | 74 | 11:06:02 | 54 | 11:54:04 | 67.2 | 0 | 2.3 | 0 | |||||
| 04/30/2026 | 13:00:00 | 120 | 75 | 12:50:00 | 70 | 12:13:04 | 73 | 68 | 12:21:03 | 49 | 12:25:05 | 59.07 | 0 | 2.2 | 0 | |||||
| 04/30/2026 | 14:00:00 | 120 | 74 | 13:01:05 | 70 | 14:00:00 | 70 | 68 | 13:25:01 | 50 | 13:02:05 | 57.2 | 0 | 3.0 | 0 | |||||
| 04/30/2026 | 15:00:00 | 120 | 70 | 14:20:01 | 68 | 14:38:00 | 69 | 74 | 14:50:02 | 57 | 14:25:03 | 72.04 | 0 | 0.9 | 0 | |||||
| 04/30/2026 | 16:00:00 | 120 | 69 | 15:00:01 | 66 | 15:59:05 | 66 | 75 | 15:36:02 | 62 | 15:02:04 | 69.49 | 0 | 0.4 | 0 | |||||
| 04/30/2026 | 17:00:00 | 120 | 66 | 16:00:02 | 64 | 16:59:05 | 64 | 76 | 16:55:05 | 62 | 16:16:03 | 72.14 | 0 | 0.5 | 0 | |||||
| 04/30/2026 | 18:00:00 | 120 | 64 | 17:19:01 | 62 | 17:59:05 | 62 | 82 | 17:59:04 | 71 | 17:00:05 | 80.8 | 0 | 0.8 | 0 | |||||
| 04/30/2026 | 19:00:00 | 120 | 62 | 18:00:01 | 60 | 18:42:02 | 60 | 90 | 18:33:05 | 79 | 18:05:01 | 86.8 | 0 | 0.3 | 0 | |||||
| 04/30/2026 | 20:00:00 | 120 | 60 | 19:57:01 | 59 | 19:43:04 | 60 | 88 | 19:20:02 | 82 | 19:55:02 | 84.5 | 0 | 0.7 | 0 | |||||
| 04/30/2026 | 21:00:00 | 120 | 60 | 20:00:01 | 58 | 20:57:04 | 58 | 88 | 20:59:03 | 83 | 20:25:00 | 87.6 | 0 | 0.7 | 0 | |||||
| 04/30/2026 | 22:00:00 | 120 | 59 | 21:38:05 | 58 | 21:58:00 | 58 | 91 | 21:27:01 | 86 | 22:00:00 | 86.4 | 0 | 0.5 | 0 | |||||
| 04/30/2026 | 23:00:00 | 120 | 58 | 22:00:04 | 57 | 22:59:03 | 57 | 90 | 22:18:05 | 86 | 22:02:01 | 88.7 | 0 | 0.3 | 0 | |||||
| 05/01/2026 | 0:00:00 | 121 | 57 | 23:18:02 | 56 | 0:00:00 | 56 | 89 | 23:05:01 | 86 | 23:34:00 | 86.4 | 0 | 1.0 | 0 | |||||
| 05/01/2026 | 1:00:00 | 121 | 56 | 0:38:02 | 54 | 1:00:00 | 54 | 92 | 0:28:03 | 87 | 0:00:01 | 90.9 | 0 | 0.1 | 0 | |||||
| 05/01/2026 | 2:00:00 | 121 | 55 | 1:52:03 | 54 | 1:15:01 | 55 | 94 | 1:32:01 | 89 | 1:59:04 | 89.4 | 0 | 0.4 | 0 | |||||
| 05/01/2026 | 3:00:00 | 121 | 55 | 2:37:00 | 55 | 2:19:01 | 55 | 90 | 2:07:02 | 88 | 3:00:00 | 87.5 | 0 | 0.9 | 0 | |||||
| 05/01/2026 | 4:00:00 | 121 | 55 | 3:01:01 | 54 | 3:42:03 | 55 | 94 | 3:56:05 | 88 | 3:00:01 | 92.7 | 0 | 0.1 | 0 | |||||
| 05/01/2026 | 5:00:00 | 121 | 55 | 4:51:05 | 54 | 4:25:00 | 55 | 95 | 4:52:00 | 92 | 4:05:01 | 92.7 | 0 | 0.6 | 0 | |||||
| 05/01/2026 | 6:00:00 | 121 | 55 | 5:06:00 | 54 | 5:31:00 | 54 | 93 | 5:25:05 | 91 | 5:51:02 | 90.8 | 0 | 0.5 | 0 | |||||
| 05/01/2026 | 7:00:00 | 121 | 55 | 6:52:05 | 54 | 6:00:02 | 55 | 92 | 6:33:05 | 90 | 7:00:00 | 89.5 | 0 | 1.3 | 0 | |||||
| 05/01/2026 | 8:00:00 | 121 | 57 | 7:59:04 | 55 | 7:01:04 | 57 | 91 | 7:05:02 | 85 | 7:50:05 | 86.7 | 0 | 1.0 | 0 | |||||
| 05/01/2026 | 9:00:00 | 121 | 59 | 9:00:00 | 57 | 8:00:02 | 59 | 88 | 8:03:02 | 80 | 8:58:03 | 81.7 | 0 | 1.0 | 0 | |||||
| 05/01/2026 | 10:00:00 | 121 | 61 | 9:59:05 | 59 | 9:00:01 | 61 | 82 | 9:00:05 | 71 | 9:50:04 | 73.82 | 0 | 2.1 | 0 | |||||
| 05/01/2026 | 11:00:00 | 121 | 64 | 10:59:04 | 61 | 10:08:00 | 64 | 78 | 10:02:05 | 67 | 10:47:04 | 68.79 | 0 | 2.4 | 0 | |||||
| 05/01/2026 | 12:00:00 | 121 | 65 | 11:11:00 | 62 | 11:58:01 | 62 | 73 | 11:07:05 | 61 | 11:13:05 | 71.25 | 0 | 1.8 | 0 | |||||
| 05/01/2026 | 13:00:00 | 121 | 64 | 12:58:04 | 62 | 12:00:02 | 64 | 74 | 12:36:04 | 61 | 12:59:05 | 60.91 | 0 | 1.6 | 0 | |||||
| 05/01/2026 | 14:00:00 | 121 | 66 | 13:33:04 | 63 | 13:59:03 | 64 | 71 | 13:17:03 | 57 | 13:37:03 | 63.28 | 0 | 2.1 | 0 | |||||
| 05/01/2026 | 15:00:00 | 121 | 64 | 14:00:02 | 63 | 14:18:05 | 63 | 73 | 14:55:04 | 60 | 14:07:04 | 71.04 | 0 | 2.0 | 0 | |||||
| 05/01/2026 | 16:00:00 | 121 | 63 | 15:02:01 | 62 | 15:59:03 | 62 | 76 | 15:59:01 | 65 | 15:05:01 | 75.68 | 0 | 1.3 | 0 | |||||
| 05/01/2026 | 17:00:00 | 121 | 62 | 16:03:02 | 61 | 17:00:00 | 61 | 86 | 17:00:00 | 73 | 16:04:04 | 85.5 | 0 | 0.2 | 0 | |||||
| 05/01/2026 | 18:00:00 | 121 | 61 | 17:00:01 | 60 | 17:57:04 | 60 | 91 | 18:00:00 | 82 | 17:03:03 | 91.3 | 0 | 0.0 | 0 | |||||
| 05/01/2026 | 19:00:00 | 121 | 60 | 18:06:03 | 59 | 18:41:02 | 59 | 96 | 18:59:02 | 91 | 18:00:01 | 95.9 | 0 | 0.1 | 0 | |||||
| 05/01/2026 | 20:00:00 | 121 | 59 | 19:16:02 | 58 | 19:44:05 | 58 | 97 | 19:51:04 | 96 | 19:00:01 | 96.4 | 0 | 0.4 | 0 | |||||
| 05/01/2026 | 21:00:00 | 121 | 58 | 20:01:01 | 58 | 20:59:01 | 58 | 96 | 20:01:00 | 94 | 20:32:03 | 95.6 | 0 | 1.5 | 0 | |||||
| 05/01/2026 | 22:00:00 | 121 | 58 | 21:44:03 | 57 | 21:13:00 | 58 | 96 | 21:09:03 | 90 | 21:58:01 | 90 | 0 | 1.3 | 0 | |||||
| 05/01/2026 | 23:00:00 | 121 | 58 | 22:36:04 | 57 | 22:12:04 | 58 | 91 | 22:15:04 | 84 | 22:58:02 | 84.6 | 0 | 1.1 | 0 | |||||
| 05/02/2026 | 0:00:00 | 122 | 58 | 23:00:04 | 56 | 23:49:04 | 57 | 89 | 23:40:02 | 82 | 23:08:03 | 86.5 | 0 | 0.9 | 0 | |||||
| 05/02/2026 | 1:00:00 | 122 | 57 | 0:27:00 | 55 | 0:56:02 | 55 | 88 | 0:01:01 | 78 | 0:35:01 | 80.5 | 0 | 0.8 | 0 | |||||
| 05/02/2026 | 2:00:00 | 122 | 55 | 1:02:01 | 55 | 1:37:04 | 55 | 83 | 1:09:03 | 72 | 1:52:03 | 73.63 | 0 | 0.5 | 0 | |||||
| 05/02/2026 | 3:00:00 | 122 | 56 | 2:02:03 | 54 | 2:55:03 | 54 | 80 | 3:00:00 | 70 | 2:22:05 | 79.99 | 0 | 0.2 | 0 | |||||
| 05/02/2026 | 4:00:00 | 122 | 54 | 3:01:03 | 51 | 3:56:00 | 51 | 92 | 4:00:00 | 77 | 3:02:03 | 91.6 | 0 | 0.1 | 0 | |||||
| 05/02/2026 | 5:00:00 | 122 | 51 | 4:49:04 | 51 | 4:15:00 | 51 | 94 | 4:09:03 | 89 | 4:31:05 | 89.5 | 0 | 1.2 | 0 | |||||
| 05/02/2026 | 6:00:00 | 122 | 52 | 5:59:03 | 51 | 5:25:03 | 52 | 92 | 5:21:03 | 82 | 5:55:05 | 84.8 | 0 | 2.0 | 0 | |||||
| 05/02/2026 | 7:00:00 | 122 | 53 | 6:59:04 | 52 | 6:01:02 | 53 | 85 | 6:00:04 | 80 | 6:28:01 | 81.6 | 0 | 2.6 | 0 | |||||
| 05/02/2026 | 8:00:00 | 122 | 57 | 7:52:01 | 53 | 7:01:00 | 57 | 83 | 7:02:01 | 70 | 7:54:04 | 71.57 | 0 | 1.5 | 0 | |||||
| 05/02/2026 | 9:00:00 | 122 | 63 | 8:49:05 | 57 | 8:00:01 | 63 | 74 | 8:03:01 | 51 | 8:47:01 | 55.27 | 0 | 1.6 | 0 | |||||
| 05/02/2026 | 10:00:00 | 122 | 67 | 9:56:01 | 63 | 9:00:01 | 67 | 64 | 9:00:05 | 42 | 9:43:03 | 49.81 | 0 | 2.4 | 0 | |||||
| 05/02/2026 | 11:00:00 | 122 | 70 | 10:51:04 | 67 | 10:04:00 | 70 | 52 | 10:25:00 | 36 | 10:55:05 | 46.18 | 0 | 4.5 | 0 | |||||
| 05/02/2026 | 12:00:00 | 122 | 72 | 11:57:00 | 69 | 11:28:03 | 71 | 51 | 11:42:02 | 35 | 11:37:00 | 43.82 | 0 | 4.5 | 0 | |||||
| 05/02/2026 | 13:00:00 | 122 | 72 | 12:55:02 | 70 | 12:37:01 | 72 | 50 | 12:29:00 | 32 | 12:56:00 | 37.24 | 0 | 6.8 | 0 | |||||
| 05/02/2026 | 14:00:00 | 122 | 74 | 13:18:04 | 68 | 13:52:05 | 71 | 51 | 13:25:05 | 33 | 13:20:00 | 36.45 | 0 | 5.7 | 0 | |||||
| 05/02/2026 | 15:00:00 | 122 | 73 | 14:51:01 | 68 | 14:21:03 | 70 | 49 | 14:20:01 | 35 | 14:50:00 | 42.4 | 0 | 4.5 | 0 | |||||
| 05/02/2026 | 16:00:00 | 122 | 73 | 15:51:01 | 68 | 15:16:05 | 73 | 50 | 15:36:03 | 34 | 15:46:03 | 38.36 | 0 | 6.0 | 0 | |||||
| 05/02/2026 | 17:00:00 | 122 | 73 | 16:01:05 | 71 | 16:12:01 | 71 | 47 | 16:22:04 | 36 | 16:06:00 | 45.63 | 0 | 7.5 | 0 | |||||
| 05/02/2026 | 18:00:00 | 122 | 72 | 17:00:01 | 67 | 17:43:05 | 68 | 50 | 17:49:03 | 36 | 17:24:04 | 48.53 | 0 | 5.8 | 0 | |||||
| 05/02/2026 | 19:00:00 | 122 | 68 | 18:00:01 | 58 | 18:59:05 | 58 | 79 | 19:00:00 | 48 | 18:04:02 | 78.52 | 0 | 0.6 | 0 | |||||
| 05/02/2026 | 20:00:00 | 122 | 58 | 19:00:01 | 54 | 19:59:02 | 54 | 90 | 19:35:02 | 71 | 19:04:03 | 88.9 | 0 | 0.0 | 0 | |||||
| 05/02/2026 | 21:00:00 | 122 | 54 | 20:00:03 | 52 | 20:59:05 | 52 | 92 | 20:57:02 | 88 | 20:05:02 | 92.3 | 0 | 0.0 | 0 | |||||
| 05/02/2026 | 22:00:00 | 122 | 52 | 21:00:01 | 50 | 21:59:03 | 50 | 95 | 21:59:04 | 92 | 21:00:04 | 95.1 | 0 | 0.0 | 0 | |||||
| 05/02/2026 | 23:00:00 | 122 | 50 | 22:00:01 | 49 | 22:59:05 | 49 | 97 | 22:59:05 | 95 | 22:00:02 | 97 | 0 | 0.0 | 0 | |||||
| 05/03/2026 | 0:00:00 | 123 | 51 | 23:32:03 | 48 | 23:12:01 | 50 | 97 | 23:03:00 | 84 | 23:31:02 | 85.7 | 0 | 0.4 | 0 | |||||
| Average | 69.09 | 66.78 | 67.88 | 86.07 | 78.63 | 82.58 | 0.02 | 1.86 | 0 | 0 | 0 | 0 | 0 | |||||||
| Total | 3.03 |